Time;durP1;ratioP1;P1;durP2;ratioP2;P2;SDS_P1;SDS_P2;PMS_P1;PMS_P2;Temp;Humidity;BMP_temperature;BMP_pressure;BME280_temperature;BME280_humidity;BME280_pressure;Samples;Min_cycle;Max_cycle;Signal;HPM_P1;HPM_P2
2021/12/08 00:01:18;;;;;;;43.57;24.90;;;4.40;99.90;;;;;;5098160;28;20256;-78
2021/12/08 00:03:46;;;;;;;46.03;24.53;;;4.40;99.90;;;;;;5087826;28;20220;-78
2021/12/08 00:06:13;;;;;;;48.43;24.33;;;4.40;99.90;;;;;;5086897;28;20222;-78
2021/12/08 00:08:46;;;;;;;46.73;24.13;;;4.40;99.90;;;;;;5086748;28;20540;-78
2021/12/08 00:13:57;;;;;;;48.33;24.40;;;4.30;99.90;;;;;;5080368;28;20218;-78
2021/12/08 00:16:24;;;;;;;59.70;25.27;;;4.30;99.90;;;;;;5092956;28;20214;-78
2021/12/08 00:18:57;;;;;;;45.73;24.40;;;4.30;99.90;;;;;;5097474;28;20580;-78
2021/12/08 00:21:26;;;;;;;44.23;25.23;;;4.40;99.90;;;;;;5095730;28;20231;-78
2021/12/08 00:23:53;;;;;;;45.53;23.97;;;4.40;99.90;;;;;;5092435;28;20295;-78
2021/12/08 00:26:19;;;;;;;46.13;24.37;;;4.40;99.90;;;;;;5092487;28;20251;-79
2021/12/08 00:28:46;;;;;;;44.67;24.23;;;4.40;99.90;;;;;;5091824;28;20239;-79
2021/12/08 00:31:13;;;;;;;48.90;25.07;;;4.40;99.90;;;;;;5092396;28;20365;-78
2021/12/08 00:33:40;;;;;;;44.97;23.47;;;4.40;99.90;;;;;;5092530;28;20222;-77
2021/12/08 00:36:13;;;;;;;41.10;23.30;;;4.40;99.90;;;;;;5095204;28;20209;-78
2021/12/08 00:38:39;;;;;;;47.33;25.67;;;4.40;99.90;;;;;;5085823;28;20317;-78
2021/12/08 00:41:07;;;;;;;45.00;25.50;;;4.50;99.90;;;;;;5094819;28;20217;-78
2021/12/08 00:43:34;;;;;;;46.97;24.40;;;4.40;99.90;;;;;;5083374;28;20229;-79
2021/12/08 00:46:01;;;;;;;47.30;25.07;;;4.50;99.90;;;;;;5095722;28;20276;-79
2021/12/08 00:48:28;;;;;;;44.27;25.00;;;4.40;99.90;;;;;;5091667;28;20235;-79
2021/12/08 00:50:55;;;;;;;45.20;24.60;;;4.50;99.90;;;;;;5097085;28;20226;-79
2021/12/08 00:53:23;;;;;;;54.93;24.97;;;4.40;99.90;;;;;;5094061;28;20217;-78
2021/12/08 00:55:50;;;;;;;44.47;23.13;;;4.40;99.90;;;;;;5084719;28;20741;-78
2021/12/08 00:58:17;;;;;;;43.50;23.87;;;4.40;99.90;;;;;;5085691;28;20735;-77
2021/12/08 01:00:50;;;;;;;43.77;23.10;;;4.50;99.90;;;;;;5085153;28;20226;-78
2021/12/08 01:03:18;;;;;;;46.57;23.83;;;4.40;99.90;;;;;;5089462;28;20593;-77
2021/12/08 01:05:47;;;;;;;48.90;24.37;;;4.50;99.90;;;;;;5090947;28;20642;-77
2021/12/08 01:08:14;;;;;;;47.27;24.67;;;4.50;99.90;;;;;;5101707;28;20655;-77
2021/12/08 01:10:44;;;;;;;44.93;23.07;;;4.40;99.90;;;;;;5091661;28;20311;-77
2021/12/08 01:13:13;;;;;;;41.23;21.80;;;4.40;99.90;;;;;;5097188;28;20257;-77
2021/12/08 01:15:44;;;;;;;45.47;23.60;;;4.40;99.90;;;;;;5098657;28;20209;-78
2021/12/08 01:18:11;;;;;;;42.83;23.93;;;4.40;99.90;;;;;;5098267;28;20636;-78
2021/12/08 01:20:38;;;;;;;44.57;23.77;;;4.40;99.90;;;;;;5097627;28;20213;-78
2021/12/08 01:23:05;;;;;;;46.37;23.80;;;4.50;99.90;;;;;;5100785;28;20575;-78
2021/12/08 01:25:32;;;;;;;42.43;22.30;;;4.50;99.90;;;;;;5090555;28;20497;-78
2021/12/08 01:28:00;;;;;;;46.50;24.33;;;4.50;99.90;;;;;;5100052;28;20216;-78
2021/12/08 01:30:27;;;;;;;42.23;23.23;;;4.50;99.90;;;;;;5098037;28;20221;-78
2021/12/08 01:32:55;;;;;;;47.77;23.33;;;4.50;99.90;;;;;;5100721;28;20259;-79
2021/12/08 01:35:22;;;;;;;44.93;24.90;;;4.50;99.90;;;;;;5095339;28;20683;-79
2021/12/08 01:37:49;;;;;;;41.07;22.20;;;4.50;99.90;;;;;;5101661;28;20242;-78
2021/12/08 01:40:17;;;;;;;44.17;22.70;;;4.60;99.90;;;;;;5099063;28;20213;-78
2021/12/08 01:42:47;;;;;;;45.00;23.10;;;4.50;99.90;;;;;;5098494;28;20282;-78
2021/12/08 01:48:05;;;;;;;38.37;21.43;;;4.60;99.90;;;;;;5087900;28;20253;-78
2021/12/08 01:50:32;;;;;;;41.47;22.40;;;4.60;99.90;;;;;;5085548;28;20223;-78
2021/12/08 01:52:59;;;;;;;40.23;21.33;;;4.60;99.90;;;;;;5087042;28;20220;-80
2021/12/08 01:55:25;;;;;;;42.27;23.97;;;4.60;99.90;;;;;;5103743;28;20236;-79
2021/12/08 01:57:52;;;;;;;41.73;23.67;;;4.60;99.90;;;;;;5090543;28;20220;-78
2021/12/08 02:00:26;;;;;;;40.73;23.10;;;4.70;99.90;;;;;;5092289;28;20221;-79
2021/12/08 02:02:59;;;;;;;45.27;23.23;;;4.70;99.90;;;;;;5088954;28;20208;-79
2021/12/08 02:05:27;;;;;;;41.07;21.73;;;4.70;99.90;;;;;;5094088;28;20214;-79
2021/12/08 02:07:54;;;;;;;40.27;22.20;;;4.70;99.90;;;;;;5094532;28;20217;-79
2021/12/08 02:10:21;;;;;;;43.43;22.60;;;4.80;99.90;;;;;;5090286;28;20298;-79
2021/12/08 02:12:49;;;;;;;40.77;22.63;;;4.70;99.90;;;;;;5099489;28;20234;-80
2021/12/08 02:15:18;;;;;;;40.63;22.57;;;4.80;99.90;;;;;;5101466;28;20217;-78
2021/12/08 02:17:47;;;;;;;39.97;21.20;;;4.70;99.90;;;;;;5104638;28;20217;-79
2021/12/08 02:20:15;;;;;;;40.80;21.70;;;4.80;99.90;;;;;;5092127;28;20218;-79
2021/12/08 02:22:44;;;;;;;40.00;21.43;;;4.80;99.90;;;;;;5093038;28;20220;-79
2021/12/08 02:25:16;;;;;;;39.83;21.90;;;4.80;99.90;;;;;;5096539;28;20760;-79
2021/12/08 02:27:43;;;;;;;40.17;22.37;;;4.80;99.90;;;;;;5098581;28;20594;-78
2021/12/08 02:30:17;;;;;;;40.27;21.43;;;4.90;99.90;;;;;;5098142;28;20338;-78
2021/12/08 02:49:23;;;;;;;36.23;21.10;;;4.80;99.90;;;;;;5041678;28;20276;-78
2021/12/08 02:51:52;;;;;;;37.20;19.83;;;4.80;99.90;;;;;;5100248;28;20288;-79
2021/12/08 02:54:22;;;;;;;36.17;19.53;;;4.80;99.90;;;;;;5090595;28;20248;-78
2021/12/08 02:56:50;;;;;;;32.90;19.20;;;4.80;99.90;;;;;;5099623;28;20222;-78
2021/12/08 02:59:16;;;;;;;35.40;18.83;;;4.90;99.90;;;;;;5090515;28;20570;-78
2021/12/08 03:01:43;;;;;;;32.13;18.30;;;4.80;99.90;;;;;;5102660;28;20221;-78
2021/12/08 03:04:10;;;;;;;32.30;19.90;;;4.80;99.90;;;;;;5105764;28;20212;-79
2021/12/08 03:06:38;;;;;;;33.57;18.43;;;4.90;99.90;;;;;;5096410;28;20224;-79
2021/12/08 03:09:06;;;;;;;34.03;19.97;;;4.80;99.90;;;;;;5099635;28;20335;-79
2021/12/08 03:11:36;;;;;;;33.10;19.27;;;4.80;99.90;;;;;;5095206;28;20284;-79
2021/12/08 03:14:06;;;;;;;34.23;19.20;;;4.80;99.90;;;;;;5089818;28;20757;-79
2021/12/08 03:16:33;;;;;;;35.23;19.70;;;4.80;99.90;;;;;;5093146;28;20260;-78
2021/12/08 03:19:00;;;;;;;30.90;18.40;;;4.80;99.90;;;;;;5107306;28;20677;-79
2021/12/08 03:21:31;;;;;;;33.10;19.90;;;4.80;99.90;;;;;;5090868;28;20206;-78
2021/12/08 03:24:11;;;;;;;36.83;19.10;;;4.90;99.90;;;;;;5090668;28;20217;-79
2021/12/08 03:26:48;;;;;;;31.60;18.37;;;4.80;99.90;;;;;;5098606;28;20251;-78
2021/12/08 03:29:23;;;;;;;36.13;20.13;;;4.80;99.90;;;;;;5087189;28;20714;-78
2021/12/08 03:31:52;;;;;;;34.27;19.17;;;4.90;99.90;;;;;;5095564;28;20219;-78
2021/12/08 03:34:22;;;;;;;37.73;19.80;;;4.90;99.90;;;;;;5095889;28;20256;-78
2021/12/08 03:36:49;;;;;;;32.57;18.17;;;4.90;99.90;;;;;;5098622;28;20223;-78
2021/12/08 03:39:16;;;;;;;33.83;19.07;;;4.90;99.90;;;;;;5094476;28;20226;-79
2021/12/08 03:41:44;;;;;;;34.10;17.57;;;4.90;99.90;;;;;;5099382;28;20246;-79
2021/12/08 03:44:11;;;;;;;33.40;18.30;;;4.90;99.90;;;;;;5086295;28;20237;-79
2021/12/08 03:46:41;;;;;;;34.03;17.43;;;4.90;99.90;;;;;;5094233;28;20681;-79
2021/12/08 03:49:11;;;;;;;33.57;19.27;;;4.90;99.90;;;;;;5099744;28;20229;-80
2021/12/08 03:51:38;;;;;;;35.40;19.83;;;4.90;99.90;;;;;;5088456;28;20222;-78
2021/12/08 03:54:05;;;;;;;33.53;18.40;;;4.90;99.90;;;;;;5092183;28;20224;-78
2021/12/08 03:56:33;;;;;;;34.13;17.87;;;4.80;99.90;;;;;;5088940;28;20267;-78
2021/12/08 03:59:02;;;;;;;35.77;19.30;;;4.90;99.90;;;;;;5087860;28;20229;-79
2021/12/08 04:01:29;;;;;;;30.93;18.40;;;4.80;99.90;;;;;;5101301;28;20228;-79
2021/12/08 04:04:02;;;;;;;31.50;17.43;;;4.80;99.90;;;;;;5097033;28;20334;-79
2021/12/08 04:06:32;;;;;;;35.07;18.73;;;4.80;99.90;;;;;;5083740;28;20223;-78
2021/12/08 04:09:03;;;;;;;30.43;18.30;;;4.80;99.90;;;;;;5085781;28;20225;-79
2021/12/08 04:11:30;;;;;;;30.47;16.97;;;4.90;99.90;;;;;;5098879;28;20315;-78
2021/12/08 04:14:01;;;;;;;34.60;18.50;;;4.80;99.90;;;;;;5088246;28;20332;-78
2021/12/08 04:16:33;;;;;;;33.93;18.67;;;4.80;99.90;;;;;;5094783;28;20278;-79
2021/12/08 04:19:02;;;;;;;35.13;18.40;;;4.80;99.90;;;;;;5092971;28;20220;-78
2021/12/08 04:21:31;;;;;;;33.47;18.70;;;4.80;99.90;;;;;;5095895;28;20214;-79
2021/12/08 04:23:58;;;;;;;33.57;19.57;;;4.80;99.90;;;;;;5089177;28;20223;-79
2021/12/08 04:26:31;;;;;;;32.77;18.90;;;4.80;99.90;;;;;;5093316;28;20722;-79
2021/12/08 04:28:57;;;;;;;29.63;17.70;;;4.80;99.90;;;;;;5090463;28;20210;-77
2021/12/08 04:31:28;;;;;;;32.13;17.80;;;4.80;99.90;;;;;;5094045;28;20225;-78
2021/12/08 04:34:01;;;;;;;30.73;18.10;;;4.80;99.90;;;;;;5090684;28;20301;-77
2021/12/08 04:36:31;;;;;;;33.57;19.13;;;4.80;99.90;;;;;;5089000;28;20220;-79
2021/12/08 04:39:02;;;;;;;33.37;18.30;;;4.80;99.90;;;;;;5101018;28;20220;-79
2021/12/08 04:41:35;;;;;;;33.43;18.50;;;4.80;99.90;;;;;;5096791;28;20275;-79
2021/12/08 04:44:10;;;;;;;33.17;18.23;;;4.80;99.90;;;;;;5095270;28;20247;-78
2021/12/08 04:47:00;;;;;;;32.37;18.13;;;4.80;99.90;;;;;;5096364;28;20220;-78
2021/12/08 04:50:02;;;;;;;32.80;18.47;;;4.90;99.90;;;;;;5089542;28;20231;-79
2021/12/08 04:52:39;;;;;;;30.97;17.93;;;4.90;99.90;;;;;;5098689;28;20265;-79
2021/12/08 05:01:09;;;;;;;28.77;16.87;;;4.90;99.90;;;;;;5091703;28;20885;-79
2021/12/08 05:03:51;;;;;;;29.93;16.57;;;4.90;99.90;;;;;;5092236;28;20206;-79
2021/12/08 05:06:39;;;;;;;28.73;16.13;;;5.00;99.90;;;;;;5091043;28;20274;-78
2021/12/08 05:09:11;;;;;;;27.83;16.20;;;5.00;99.90;;;;;;5095566;28;20648;-78
2021/12/08 05:11:41;;;;;;;26.73;16.30;;;4.90;99.90;;;;;;5085861;28;20222;-80
2021/12/08 05:14:11;;;;;;;28.17;16.47;;;4.80;99.90;;;;;;5093307;28;20226;-81
2021/12/08 05:16:41;;;;;;;30.00;15.93;;;4.80;99.90;;;;;;5102256;28;20314;-81
2021/12/08 05:19:12;;;;;;;27.30;16.63;;;4.70;99.90;;;;;;5096731;28;20721;-80
2021/12/08 05:21:44;;;;;;;35.27;16.67;;;4.60;99.90;;;;;;5090477;28;20229;-81
2021/12/08 05:24:15;;;;;;;37.40;18.03;;;4.60;99.90;;;;;;5098780;27;20591;-81
2021/12/08 05:26:47;;;;;;;31.17;16.33;;;4.50;99.90;;;;;;5102570;28;20218;-86
2021/12/08 05:29:19;;;;;;;31.97;17.27;;;4.40;99.90;;;;;;5090810;28;20308;-86
2021/12/08 05:31:46;;;;;;;37.63;16.97;;;4.30;99.90;;;;;;5091388;28;20235;-86
2021/12/08 05:34:13;;;;;;;37.90;16.67;;;4.40;99.90;;;;;;5094301;28;20701;-85
2021/12/08 05:36:42;;;;;;;31.80;16.47;;;4.20;99.90;;;;;;5093428;28;20321;-81
2021/12/08 05:39:13;;;;;;;37.17;18.20;;;4.20;99.90;;;;;;5092272;28;20244;-81
2021/12/08 05:41:45;;;;;;;36.93;17.53;;;4.20;99.90;;;;;;5086301;28;20289;-81
2021/12/08 05:44:12;;;;;;;42.87;17.13;;;4.10;99.90;;;;;;5097931;28;20234;-82
2021/12/08 05:46:42;;;;;;;32.27;17.43;;;4.10;99.90;;;;;;5094039;28;20223;-82
2021/12/08 05:49:11;;;;;;;42.93;17.97;;;4.10;99.90;;;;;;5092035;28;20247;-81
2021/12/08 05:51:38;;;;;;;59.17;19.50;;;4.10;99.90;;;;;;5087099;28;20224;-81
2021/12/08 05:54:11;;;;;;;40.07;19.77;;;4.00;99.90;;;;;;5089548;28;20276;-81
2021/12/08 05:56:38;;;;;;;36.03;17.83;;;4.00;99.90;;;;;;5095009;28;20221;-81
2021/12/08 05:59:08;;;;;;;45.70;18.53;;;4.00;99.90;;;;;;5097584;28;20220;-80
2021/12/08 06:01:38;;;;;;;80.37;19.37;;;4.00;99.90;;;;;;5085216;28;20229;-80
2021/12/08 06:04:06;;;;;;;46.73;20.97;;;4.00;99.90;;;;;;5088847;28;20255;-80
2021/12/08 06:06:34;;;;;;;56.63;20.40;;;3.90;99.90;;;;;;5091210;28;20316;-81
2021/12/08 06:09:02;;;;;;;38.73;20.53;;;3.90;99.90;;;;;;5099664;28;20233;-78
2021/12/08 06:11:30;;;;;;;39.57;18.97;;;3.80;99.90;;;;;;5095038;28;20231;-78
2021/12/08 06:13:59;;;;;;;36.73;18.67;;;3.80;99.90;;;;;;5088446;28;20287;-78
2021/12/08 06:16:26;;;;;;;38.90;19.37;;;3.80;99.90;;;;;;5085625;28;20228;-78
2021/12/08 06:18:54;;;;;;;385.20;44.13;;;3.80;99.90;;;;;;5103403;28;20826;-77
2021/12/08 06:21:25;;;;;;;45.00;19.87;;;3.80;99.90;;;;;;5095185;28;20228;-77
2021/12/08 06:23:53;;;;;;;41.87;19.90;;;3.80;99.90;;;;;;5088827;28;20226;-78
2021/12/08 06:26:22;;;;;;;37.43;20.23;;;3.80;99.90;;;;;;5093060;28;20228;-78
2021/12/08 06:28:50;;;;;;;36.90;19.80;;;3.80;99.90;;;;;;5096700;28;20707;-78
2021/12/08 06:31:20;;;;;;;37.70;19.23;;;3.80;99.90;;;;;;5085870;28;20224;-77
2021/12/08 06:33:46;;;;;;;37.07;18.87;;;3.70;99.90;;;;;;5088263;28;20227;-77
2021/12/08 06:36:17;;;;;;;38.90;20.27;;;3.70;99.90;;;;;;5091866;28;20681;-77
2021/12/08 06:38:44;;;;;;;36.03;20.77;;;3.70;99.90;;;;;;5085438;28;20293;-78
2021/12/08 06:41:17;;;;;;;92.07;24.60;;;3.70;99.90;;;;;;5088127;28;20223;-77
2021/12/08 06:43:47;;;;;;;39.77;22.10;;;3.70;99.90;;;;;;5084835;28;20239;-77
2021/12/08 06:46:16;;;;;;;45.07;22.30;;;3.70;99.90;;;;;;5089325;28;20232;-77
2021/12/08 06:48:46;;;;;;;41.97;22.00;;;3.70;99.90;;;;;;5089134;28;20231;-78
2021/12/08 06:51:16;;;;;;;44.50;22.07;;;3.70;99.90;;;;;;5090190;28;20226;-77
2021/12/08 06:53:45;;;;;;;39.00;20.93;;;3.70;99.90;;;;;;5087084;28;20727;-78
2021/12/08 06:56:15;;;;;;;41.77;21.73;;;3.60;99.90;;;;;;5096117;28;20224;-78
2021/12/08 06:58:47;;;;;;;51.27;20.33;;;3.60;99.90;;;;;;5093318;28;20223;-78
2021/12/08 07:01:21;;;;;;;42.20;20.90;;;3.70;99.90;;;;;;5091937;28;20249;-78
2021/12/08 07:04:06;;;;;;;37.50;20.83;;;3.70;99.90;;;;;;5100369;28;20217;-78
2021/12/08 07:06:45;;;;;;;37.97;20.47;;;3.70;99.90;;;;;;5087181;28;20593;-78
2021/12/08 07:09:15;;;;;;;37.27;19.70;;;3.70;99.90;;;;;;5087971;28;20236;-78
2021/12/08 07:11:42;;;;;;;41.50;21.10;;;3.70;99.90;;;;;;5100307;28;20265;-78
2021/12/08 07:14:09;;;;;;;35.83;19.97;;;3.70;99.90;;;;;;5092954;28;20231;-79
2021/12/08 07:16:41;;;;;;;39.37;21.97;;;3.70;99.90;;;;;;5089633;28;20221;-79
2021/12/08 07:19:21;;;;;;;35.83;19.87;;;3.70;99.90;;;;;;5103464;28;20235;-79
2021/12/08 07:21:48;;;;;;;35.30;19.53;;;3.80;99.90;;;;;;5097217;28;20225;-79
2021/12/08 07:24:19;;;;;;;30.70;19.07;;;3.80;99.90;;;;;;5085878;28;20215;-79
2021/12/08 07:26:47;;;;;;;33.70;19.77;;;3.80;99.90;;;;;;5090028;28;20848;-79
2021/12/08 07:29:17;;;;;;;34.40;19.17;;;3.80;99.90;;;;;;5097901;28;20310;-79
2021/12/08 07:31:49;;;;;;;32.77;19.40;;;3.80;99.90;;;;;;5098818;28;20845;-79
2021/12/08 07:34:19;;;;;;;35.23;20.23;;;3.80;99.90;;;;;;5090568;28;20225;-80
2021/12/08 07:36:49;;;;;;;40.03;21.27;;;3.80;99.90;;;;;;5108103;28;20612;-79
2021/12/08 07:39:19;;;;;;;34.30;20.47;;;3.80;99.90;;;;;;5092439;28;20212;-79
2021/12/08 07:41:52;;;;;;;36.53;19.93;;;3.80;99.90;;;;;;5100889;28;20218;-79
2021/12/08 07:44:24;;;;;;;35.37;20.27;;;3.90;99.90;;;;;;5095401;28;20586;-80
2021/12/08 07:46:55;;;;;;;33.33;19.50;;;3.80;99.90;;;;;;5095237;28;20214;-79
2021/12/08 07:49:25;;;;;;;33.87;19.37;;;3.80;99.90;;;;;;5100854;28;20279;-79
2021/12/08 07:51:56;;;;;;;36.67;18.83;;;3.90;99.90;;;;;;5106997;28;21852;-79
2021/12/08 07:54:25;;;;;;;30.27;18.47;;;3.90;99.90;;;;;;5098776;28;20735;-79
2021/12/08 07:56:56;;;;;;;36.50;20.23;;;3.90;99.90;;;;;;5102972;28;20317;-79
2021/12/08 07:59:24;;;;;;;34.47;19.50;;;3.90;99.90;;;;;;5102636;28;20210;-79
2021/12/08 08:01:55;;;;;;;32.20;18.87;;;3.90;99.90;;;;;;5097999;28;20255;-80
2021/12/08 08:04:24;;;;;;;34.33;19.93;;;3.90;99.90;;;;;;5106940;28;20232;-80
2021/12/08 08:06:55;;;;;;;32.00;18.97;;;3.90;99.90;;;;;;5104108;27;20229;-80
2021/12/08 08:09:25;;;;;;;35.00;20.87;;;3.90;99.90;;;;;;5100914;28;20327;-80
2021/12/08 08:11:57;;;;;;;30.23;18.43;;;3.90;99.90;;;;;;5093122;28;20312;-79
2021/12/08 08:14:27;;;;;;;29.97;17.87;;;3.90;99.90;;;;;;5090172;28;20220;-79
2021/12/08 08:16:58;;;;;;;31.80;18.90;;;4.00;99.90;;;;;;5108679;28;20626;-80
2021/12/08 08:19:29;;;;;;;35.93;20.17;;;3.90;99.90;;;;;;5093966;28;21288;-80
2021/12/08 08:22:01;;;;;;;30.17;17.97;;;4.00;99.90;;;;;;5102095;28;20220;-80
2021/12/08 08:24:28;;;;;;;31.47;18.27;;;4.00;99.90;;;;;;5093044;28;20266;-80
2021/12/08 08:26:59;;;;;;;31.80;19.17;;;3.90;99.90;;;;;;5104866;28;20317;-80
2021/12/08 08:29:26;;;;;;;34.53;19.23;;;3.90;99.90;;;;;;5105445;28;20236;-80
2021/12/08 08:31:59;;;;;;;33.03;19.33;;;3.90;99.90;;;;;;5094765;28;20219;-80
2021/12/08 08:34:28;;;;;;;28.50;19.13;;;4.00;99.90;;;;;;5090894;28;20299;-81
2021/12/08 08:36:55;;;;;;;30.10;18.70;;;4.00;99.90;;;;;;5085338;28;20862;-81
2021/12/08 08:39:25;;;;;;;154.73;25.83;;;4.00;99.90;;;;;;5103414;28;20253;-81
2021/12/08 08:41:55;;;;;;;34.33;19.00;;;4.00;99.90;;;;;;5110777;28;20216;-81
2021/12/08 08:44:25;;;;;;;27.70;18.17;;;4.00;99.90;;;;;;5103033;28;20702;-81
2021/12/08 08:46:53;;;;;;;33.20;18.10;;;4.10;99.90;;;;;;5101928;28;20686;-82
2021/12/08 08:49:25;;;;;;;28.50;17.23;;;4.10;99.90;;;;;;5103322;28;20334;-82
2021/12/08 08:51:59;;;;;;;33.53;18.83;;;4.10;99.90;;;;;;5107200;28;20220;-82
2021/12/08 08:54:31;;;;;;;31.57;19.80;;;4.10;99.90;;;;;;5096641;27;20254;-82
2021/12/08 08:57:01;;;;;;;30.13;17.80;;;4.10;99.90;;;;;;5082710;28;20215;-83
2021/12/08 08:59:31;;;;;;;29.23;19.33;;;4.10;99.90;;;;;;5101176;28;20904;-82
2021/12/08 09:01:59;;;;;;;29.93;18.43;;;4.20;99.90;;;;;;5080696;28;20220;-82
2021/12/08 09:04:31;;;;;;;36.77;18.60;;;4.20;99.90;;;;;;5096007;28;20218;-83
2021/12/08 09:07:02;;;;;;;30.13;18.10;;;4.20;99.90;;;;;;5092938;28;20226;-83
2021/12/08 09:09:32;;;;;;;32.47;18.27;;;4.20;99.90;;;;;;5092693;28;20896;-83
2021/12/08 09:12:04;;;;;;;29.57;17.77;;;4.30;99.90;;;;;;5091958;28;20336;-83
2021/12/08 09:14:35;;;;;;;29.77;17.77;;;4.30;99.90;;;;;;5091685;28;20226;-83
2021/12/08 09:17:09;;;;;;;28.67;18.23;;;4.30;99.90;;;;;;5087906;28;20218;-83
2021/12/08 09:19:42;;;;;;;27.90;16.97;;;4.30;99.90;;;;;;5093539;28;20306;-83
2021/12/08 09:22:15;;;;;;;27.90;16.97;;;4.30;99.90;;;;;;5104269;28;20237;-83
2021/12/08 09:24:47;;;;;;;28.50;18.03;;;4.30;99.90;;;;;;5096784;28;20254;-83
2021/12/08 09:27:19;;;;;;;28.80;17.10;;;4.30;99.90;;;;;;5092142;28;20217;-84
2021/12/08 09:29:50;;;;;;;32.23;19.03;;;4.40;99.90;;;;;;5098384;28;20214;-84
2021/12/08 09:32:20;;;;;;;33.67;17.60;;;4.40;99.90;;;;;;5097939;28;20229;-82
2021/12/08 09:34:56;;;;;;;29.77;17.67;;;4.40;99.90;;;;;;5098728;28;20221;-84
2021/12/08 09:37:28;;;;;;;30.00;17.63;;;4.40;99.90;;;;;;5099699;28;20227;-84
2021/12/08 09:39:58;;;;;;;29.23;17.03;;;4.40;99.90;;;;;;5098768;28;20206;-83
2021/12/08 09:42:28;;;;;;;28.37;16.63;;;4.40;99.90;;;;;;5100460;28;20889;-83
2021/12/08 09:45:00;;;;;;;29.23;17.73;;;4.40;99.90;;;;;;5099629;28;20386;-82
2021/12/08 09:47:29;;;;;;;26.33;17.43;;;4.50;99.90;;;;;;5093957;28;20226;-83
2021/12/08 09:49:57;;;;;;;27.63;17.10;;;4.50;99.90;;;;;;5101055;28;20230;-83
2021/12/08 09:52:28;;;;;;;27.73;17.67;;;4.50;99.90;;;;;;5102026;28;20244;-83
2021/12/08 09:54:55;;;;;;;28.30;16.83;;;4.50;99.90;;;;;;5091337;28;20223;-83
2021/12/08 09:57:22;;;;;;;26.90;16.67;;;4.50;99.90;;;;;;5099054;28;20260;-82
2021/12/08 09:59:48;;;;;;;28.10;17.00;;;4.50;99.90;;;;;;5088485;28;20329;-82
2021/12/08 10:02:24;;;;;;;24.47;15.83;;;4.60;99.90;;;;;;5100174;28;20225;-82
2021/12/08 10:04:51;;;;;;;25.93;16.47;;;4.60;99.90;;;;;;5093355;28;20607;-82
2021/12/08 10:07:20;;;;;;;27.27;17.03;;;4.70;99.90;;;;;;5103187;28;20746;-82
2021/12/08 10:09:49;;;;;;;26.67;16.03;;;4.70;99.90;;;;;;5100042;28;20226;-82
2021/12/08 10:12:16;;;;;;;26.93;16.83;;;4.70;99.90;;;;;;5092141;28;20225;-81
2021/12/08 10:14:46;;;;;;;29.50;16.53;;;4.80;99.90;;;;;;5092260;28;20262;-81
2021/12/08 10:17:14;;;;;;;24.63;15.50;;;4.80;99.90;;;;;;5093874;28;20226;-81
2021/12/08 10:19:41;;;;;;;24.43;15.53;;;4.80;99.90;;;;;;5096320;28;20227;-80
2021/12/08 10:22:19;;;;;;;23.93;15.87;;;4.80;99.90;;;;;;5089078;28;20253;-80
2021/12/08 10:25:03;;;;;;;24.33;15.13;;;4.90;99.90;;;;;;5094588;28;20235;-79
2021/12/08 10:27:30;;;;;;;26.87;16.73;;;4.90;99.90;;;;;;5096879;28;20896;-79
2021/12/08 10:30:19;;;;;;;25.20;14.67;;;5.00;99.90;;;;;;5096369;28;20237;-79
2021/12/08 10:32:46;;;;;;;24.60;15.07;;;5.00;99.90;;;;;;5094331;28;20233;-79
2021/12/08 10:35:43;;;;;;;26.90;15.13;;;5.00;99.90;;;;;;5099485;28;20643;-78
2021/12/08 10:38:12;;;;;;;23.70;15.63;;;5.00;99.90;;;;;;5094565;28;20233;-79
2021/12/08 10:40:39;;;;;;;24.73;14.30;;;5.00;99.90;;;;;;5094442;28;20604;-79
2021/12/08 10:43:16;;;;;;;24.73;15.07;;;5.10;99.90;;;;;;5102957;28;20760;-79
2021/12/08 10:45:43;;;;;;;22.90;14.50;;;5.10;99.90;;;;;;5086127;28;20346;-79
2021/12/08 10:48:10;;;;;;;22.50;14.23;;;5.10;99.90;;;;;;5097679;28;20300;-79
2021/12/08 10:56:36;;;;;;;23.30;14.50;;;5.20;99.90;;;;;;5054683;28;20817;-79
2021/12/08 10:59:03;;;;;;;20.80;14.70;;;5.20;99.90;;;;;;5070774;28;20255;-79
2021/12/08 11:01:30;;;;;;;23.87;14.53;;;5.30;99.90;;;;;;5103425;28;20768;-79
2021/12/08 11:04:01;;;;;;;21.00;13.90;;;5.30;99.90;;;;;;5096066;28;20750;-79
2021/12/08 11:06:30;;;;;;;20.30;13.67;;;5.30;99.90;;;;;;5099268;28;20317;-79
2021/12/08 11:08:58;;;;;;;22.33;13.77;;;5.40;99.90;;;;;;5097228;28;20318;-79
2021/12/08 11:11:31;;;;;;;21.27;14.10;;;5.40;99.90;;;;;;5090097;28;20907;-79
2021/12/08 11:14:01;;;;;;;19.43;13.13;;;5.40;99.90;;;;;;5087425;28;20218;-79
2021/12/08 11:16:30;;;;;;;24.77;15.50;;;5.40;99.90;;;;;;5098244;28;20328;-79
2021/12/08 11:19:00;;;;;;;28.90;16.43;;;5.50;99.90;;;;;;5097214;28;20283;-79
2021/12/08 11:21:35;;;;;;;21.93;14.30;;;5.50;99.90;;;;;;5110605;28;20294;-79
2021/12/08 11:24:11;;;;;;;20.73;12.93;;;5.50;99.90;;;;;;5095816;28;20669;-79
2021/12/08 11:26:41;;;;;;;22.33;14.37;;;5.50;99.90;;;;;;5086510;28;20290;-79
2021/12/08 11:29:09;;;;;;;23.40;14.57;;;5.60;99.90;;;;;;5099086;28;20241;-79
2021/12/08 11:31:41;;;;;;;21.43;13.50;;;5.70;99.90;;;;;;5100592;28;20262;-79
2021/12/08 11:34:15;;;;;;;21.77;13.57;;;5.60;99.90;;;;;;5094735;28;20225;-79
2021/12/08 11:36:42;;;;;;;22.03;13.73;;;5.70;99.90;;;;;;5094784;28;20259;-79
2021/12/08 11:39:13;;;;;;;19.17;12.33;;;5.70;99.90;;;;;;5095059;28;20317;-79
2021/12/08 11:41:42;;;;;;;21.83;13.93;;;5.70;99.90;;;;;;5104930;28;20835;-78
2021/12/08 11:44:12;;;;;;;25.10;14.17;;;5.80;99.90;;;;;;5086553;28;20226;-78
2021/12/08 11:46:44;;;;;;;21.97;13.23;;;5.80;99.90;;;;;;5095124;28;20231;-78
2021/12/08 11:49:11;;;;;;;22.43;13.97;;;5.80;99.90;;;;;;5091753;28;20228;-78
2021/12/08 11:51:57;;;;;;;21.60;14.13;;;5.80;99.90;;;;;;5097537;28;20217;-79
2021/12/08 11:54:29;;;;;;;19.87;12.43;;;5.80;99.90;;;;;;5093945;28;20322;-79
2021/12/08 11:57:03;;;;;;;22.07;13.77;;;5.80;99.90;;;;;;5092977;28;20217;-78
2021/12/08 11:59:30;;;;;;;22.27;12.87;;;5.80;99.90;;;;;;5095221;28;20252;-79
2021/12/08 12:01:58;;;;;;;22.73;12.80;;;5.80;99.90;;;;;;5082059;28;20232;-79
2021/12/08 12:04:25;;;;;;;21.07;14.00;;;5.80;99.90;;;;;;5101126;28;20227;-78
2021/12/08 12:06:52;;;;;;;21.93;14.17;;;5.80;99.90;;;;;;5106313;28;20225;-79
2021/12/08 12:09:19;;;;;;;21.33;13.67;;;5.80;99.90;;;;;;5090346;28;20234;-79
2021/12/08 12:11:52;;;;;;;22.17;14.03;;;5.90;99.90;;;;;;5101720;28;20295;-78
2021/12/08 12:14:21;;;;;;;24.80;14.23;;;5.90;99.90;;;;;;5104590;27;20222;-79
2021/12/08 12:16:47;;;;;;;22.83;14.50;;;5.90;99.90;;;;;;5110952;28;20222;-78
2021/12/08 12:19:17;;;;;;;24.00;14.30;;;5.90;99.90;;;;;;5091413;28;20307;-78
2021/12/08 12:21:57;;;;;;;22.33;13.53;;;5.90;99.90;;;;;;5104692;28;20235;-79
2021/12/08 12:24:53;;;;;;;21.87;14.10;;;6.00;99.90;;;;;;5097788;28;20223;-78
2021/12/08 12:27:36;;;;;;;22.73;13.83;;;5.90;99.90;;;;;;5079655;28;20343;-78
2021/12/08 12:30:12;;;;;;;22.60;13.57;;;5.90;99.90;;;;;;5083790;28;20243;-78
2021/12/08 12:32:45;;;;;;;21.93;14.13;;;5.90;99.90;;;;;;5091971;28;20237;-78
2021/12/08 12:35:15;;;;;;;24.17;14.00;;;5.90;99.90;;;;;;5083478;28;20227;-77
2021/12/08 12:37:42;;;;;;;22.93;14.93;;;6.00;99.90;;;;;;5090017;28;20316;-78
2021/12/08 12:40:11;;;;;;;23.70;13.63;;;6.00;99.90;;;;;;5082397;28;20230;-78
2021/12/08 12:42:49;;;;;;;22.17;13.63;;;6.00;99.90;;;;;;5099230;28;20228;-77
2021/12/08 12:45:16;;;;;;;29.27;15.83;;;5.90;99.90;;;;;;5093353;28;20304;-78
2021/12/08 12:47:44;;;;;;;24.33;14.27;;;6.00;99.90;;;;;;5091301;28;20221;-78
2021/12/08 12:50:21;;;;;;;24.27;14.47;;;5.90;99.90;;;;;;5092993;28;20250;-78
2021/12/08 12:52:52;;;;;;;24.97;14.50;;;5.90;99.90;;;;;;5088012;28;20216;-77
2021/12/08 12:55:21;;;;;;;22.90;14.03;;;6.00;99.90;;;;;;5087717;28;20785;-79
2021/12/08 12:58:17;;;;;;;22.00;13.53;;;6.00;99.90;;;;;;5100620;28;20253;-80
2021/12/08 13:00:47;;;;;;;24.40;14.80;;;6.00;99.90;;;;;;5101425;28;20253;-79
2021/12/08 13:03:36;;;;;;;23.30;14.70;;;6.00;99.90;;;;;;5091755;28;20292;-80
2021/12/08 13:06:04;;;;;;;23.27;14.87;;;6.00;99.90;;;;;;5087631;28;20314;-80
2021/12/08 13:08:32;;;;;;;24.00;14.70;;;6.00;99.90;;;;;;5088224;28;20222;-80
2021/12/08 13:11:01;;;;;;;25.67;14.20;;;6.00;99.90;;;;;;5108715;28;20250;-80
2021/12/08 13:13:44;;;;;;;24.70;15.13;;;6.00;99.90;;;;;;5089732;28;20234;-78
2021/12/08 13:16:22;;;;;;;24.63;14.57;;;6.00;99.90;;;;;;5096797;28;20534;-81
2021/12/08 13:18:55;;;;;;;25.73;14.53;;;6.00;99.90;;;;;;5103381;28;20883;-80
2021/12/08 13:21:41;;;;;;;25.37;14.97;;;6.00;99.90;;;;;;5096706;28;20705;-80
2021/12/08 13:24:38;;;;;;;24.87;15.60;;;6.00;99.90;;;;;;5093991;28;20215;-79
2021/12/08 13:27:07;;;;;;;25.60;14.67;;;6.00;99.90;;;;;;5086572;28;20316;-79